Time;durP1;ratioP1;P1;durP2;ratioP2;P2;SDS_P1;SDS_P2;PMS_P1;PMS_P2;Temp;Humidity;BMP_temperature;BMP_pressure;BME280_temperature;BME280_humidity;BME280_pressure;Samples;Min_cycle;Max_cycle;Signal;HPM_P1;HPM_P2
2022/12/11 00:00:41;;;;;;;3.05;1.05;;;23.50;52.80;;;;;;4128385;28;20050;-49
2022/12/11 00:03:03;;;;;;;2.37;1.03;;;23.50;52.80;;;;;;4127009;28;20031;-54
2022/12/11 00:05:26;;;;;;;2.30;0.90;;;23.60;52.90;;;;;;4136377;28;20327;-50
2022/12/11 00:07:48;;;;;;;1.88;0.95;;;23.60;52.80;;;;;;4111316;28;20045;-52
2022/12/11 00:10:11;;;;;;;1.27;0.65;;;23.60;52.80;;;;;;4126157;28;20099;-51
2022/12/11 00:12:33;;;;;;;1.65;0.85;;;23.60;52.70;;;;;;4123974;28;20045;-50
2022/12/11 00:14:56;;;;;;;1.35;0.82;;;23.60;52.70;;;;;;4137546;28;20073;-50
2022/12/11 00:17:18;;;;;;;1.80;0.90;;;23.60;52.60;;;;;;4138221;28;20107;-47
2022/12/11 00:19:41;;;;;;;2.38;0.93;;;23.70;52.60;;;;;;4143961;28;20042;-51
2022/12/11 00:22:03;;;;;;;1.65;1.02;;;23.70;52.60;;;;;;4151941;28;20033;-47
2022/12/11 00:24:26;;;;;;;2.83;1.05;;;23.70;52.60;;;;;;4148450;28;20040;-51
2022/12/11 00:26:48;;;;;;;2.03;0.82;;;23.80;52.60;;;;;;4138140;28;20068;-54
2022/12/11 00:29:14;;;;;;;0.98;0.50;;;23.80;52.50;;;;;;4133746;28;21056;-47
2022/12/11 00:31:36;;;;;;;2.03;0.82;;;23.80;52.50;;;;;;4135264;28;20524;-49
2022/12/11 00:34:00;;;;;;;1.48;0.80;;;23.80;52.50;;;;;;4137926;28;20083;-47
2022/12/11 00:36:25;;;;;;;1.15;0.85;;;23.80;52.50;;;;;;4137050;28;20501;-51
2022/12/11 00:38:48;;;;;;;1.75;0.80;;;23.80;52.50;;;;;;4138031;28;20263;-50
2022/12/11 00:41:11;;;;;;;1.80;0.98;;;23.90;52.50;;;;;;4128480;28;20052;-52
2022/12/11 00:43:34;;;;;;;2.05;0.65;;;23.90;52.40;;;;;;4132777;28;20030;-50
2022/12/11 00:45:57;;;;;;;1.63;0.67;;;23.90;52.40;;;;;;4133291;28;20066;-52
2022/12/11 00:48:19;;;;;;;1.45;0.90;;;24.00;52.50;;;;;;4109602;28;20538;-49
2022/12/11 00:50:42;;;;;;;1.65;0.75;;;24.00;52.40;;;;;;4123961;28;20070;-52
2022/12/11 00:53:05;;;;;;;0.85;0.60;;;24.00;52.40;;;;;;4128636;28;20569;-51
2022/12/11 00:55:28;;;;;;;1.27;0.80;;;24.00;52.50;;;;;;4130900;28;20030;-50
2022/12/11 00:57:54;;;;;;;0.95;0.73;;;24.10;52.40;;;;;;4128395;28;20077;-52
2022/12/11 01:00:17;;;;;;;0.93;0.70;;;24.10;52.40;;;;;;4134527;28;20084;-51
2022/12/11 01:02:40;;;;;;;1.85;0.90;;;24.10;52.30;;;;;;4127924;28;20122;-48
2022/12/11 01:05:02;;;;;;;2.20;0.90;;;24.20;52.30;;;;;;4134989;28;20498;-48
2022/12/11 01:07:25;;;;;;;1.27;0.88;;;24.20;52.40;;;;;;4132431;28;20088;-51
2022/12/11 01:12:28;;;;;;;1.73;1.00;;;24.30;52.40;;;;;;4131788;28;20117;-51
2022/12/11 01:14:51;;;;;;;1.75;0.90;;;24.30;52.30;;;;;;4133566;28;20069;-49
2022/12/11 01:17:13;;;;;;;0.80;0.65;;;24.30;52.40;;;;;;4150174;28;20424;-52
2022/12/11 01:19:36;;;;;;;1.42;0.73;;;24.40;52.30;;;;;;4148696;28;20033;-49
2022/12/11 01:21:59;;;;;;;1.33;0.80;;;24.40;52.40;;;;;;4146139;28;20061;-52
2022/12/11 01:24:21;;;;;;;1.90;0.88;;;24.40;52.60;;;;;;4135344;28;20034;-50
2022/12/11 01:26:44;;;;;;;2.88;1.10;;;24.40;52.50;;;;;;4131042;28;20083;-47
2022/12/11 01:29:06;;;;;;;1.17;0.65;;;24.50;52.60;;;;;;4141352;28;20070;-50
2022/12/11 01:31:29;;;;;;;2.08;1.30;;;24.60;52.50;;;;;;4130905;28;20088;-51
2022/12/11 01:33:54;;;;;;;2.15;1.10;;;24.60;52.60;;;;;;4132091;28;20497;-50
2022/12/11 01:36:21;;;;;;;2.75;1.40;;;24.60;52.50;;;;;;4129461;28;20465;-51
2022/12/11 01:38:45;;;;;;;1.08;0.70;;;24.60;52.60;;;;;;4135561;28;20046;-48
2022/12/11 01:41:07;;;;;;;;;;;24.70;52.60;;;;;;4131897;28;20038;-48
2022/12/11 01:43:30;;;;;;;1.60;1.10;;;24.70;52.60;;;;;;4131217;28;20350;-52
2022/12/11 01:45:53;;;;;;;1.30;0.90;;;24.80;53.40;;;;;;4146075;28;20079;-52
2022/12/11 01:48:22;;;;;;;2.25;1.30;;;24.80;52.70;;;;;;4135681;28;20572;-49
2022/12/11 01:50:52;;;;;;;1.02;0.93;;;24.80;52.80;;;;;;4136770;28;20041;-51
2022/12/11 01:53:27;;;;;;;1.83;0.90;;;24.90;52.80;;;;;;4129311;28;20037;-52
2022/12/11 01:55:52;;;;;;;1.45;0.90;;;24.90;52.80;;;;;;4136299;28;20108;-52
2022/12/11 01:58:17;;;;;;;1.85;1.02;;;25.00;52.80;;;;;;4131904;28;20100;-51
2022/12/11 02:00:39;;;;;;;1.70;1.10;;;25.00;52.70;;;;;;4142908;28;20037;-48
2022/12/11 02:03:02;;;;;;;2.30;1.00;;;25.10;52.80;;;;;;4133260;28;20074;-46
2022/12/11 02:05:25;;;;;;;2.25;1.10;;;25.10;52.80;;;;;;4141411;28;20488;-51
2022/12/11 02:07:52;;;;;;;2.58;1.33;;;25.10;52.80;;;;;;4137753;28;20045;-52
2022/12/11 02:10:14;;;;;;;2.22;1.20;;;25.20;53.00;;;;;;4123468;28;20164;-51
2022/12/11 02:13:08;;;;;;;3.67;1.40;;;25.20;53.00;;;;;;4135211;28;20042;-52
2022/12/11 02:15:40;;;;;;;2.63;1.27;;;25.30;52.90;;;;;;4133690;28;20157;-51
2022/12/11 02:18:41;;;;;;;2.50;1.45;;;25.30;53.10;;;;;;4134968;28;20040;-47
2022/12/11 02:21:17;;;;;;;1.67;0.93;;;25.40;53.00;;;;;;4131648;28;20042;-51
2022/12/11 02:24:04;;;;;;;3.67;1.55;;;25.40;53.00;;;;;;4133547;28;20409;-50
2022/12/11 02:26:55;;;;;;;3.67;1.48;;;25.50;53.10;;;;;;4125831;28;20056;-53
2022/12/11 02:29:46;;;;;;;1.40;1.20;;;25.50;53.20;;;;;;4134438;28;20029;-52
2022/12/11 02:32:43;;;;;;;2.15;1.23;;;25.50;53.10;;;;;;4133189;28;20488;-53
2022/12/11 02:35:34;;;;;;;1.63;1.00;;;25.70;53.20;;;;;;4135179;28;20054;-53
2022/12/11 02:38:11;;;;;;;2.75;1.27;;;25.70;53.10;;;;;;4132987;28;20076;-52
2022/12/11 02:40:39;;;;;;;2.35;1.38;;;25.70;53.30;;;;;;4139629;28;20532;-51
2022/12/11 02:43:05;;;;;;;2.75;1.02;;;25.80;53.30;;;;;;4134045;28;20476;-53
2022/12/11 02:45:28;;;;;;;2.55;1.55;;;25.80;53.10;;;;;;4141426;28;20056;-52
2022/12/11 02:47:51;;;;;;;3.00;1.30;;;25.80;53.10;;;;;;4113892;28;20039;-50
2022/12/11 02:50:18;;;;;;;4.40;1.23;;;25.90;53.20;;;;;;4125594;28;20065;-50
2022/12/11 02:52:43;;;;;;;2.13;0.90;;;26.00;53.20;;;;;;4136004;28;20090;-52
2022/12/11 02:55:08;;;;;;;2.75;1.20;;;26.00;53.20;;;;;;4151598;28;20358;-53
2022/12/11 02:57:48;;;;;;;1.90;1.13;;;26.00;53.20;;;;;;4129823;28;20120;-49
2022/12/11 03:00:11;;;;;;;2.53;1.17;;;26.10;53.20;;;;;;4133797;28;20396;-51
2022/12/11 03:02:39;;;;;;;3.85;1.40;;;26.10;53.20;;;;;;4145278;28;20074;-50
2022/12/11 03:05:02;;;;;;;2.50;1.38;;;26.20;53.20;;;;;;4147548;28;20532;-48
2022/12/11 03:07:28;;;;;;;1.70;0.90;;;26.20;53.20;;;;;;4132846;28;20048;-50
2022/12/11 03:09:51;;;;;;;1.52;1.10;;;26.20;53.10;;;;;;4139222;28;20031;-54
2022/12/11 03:12:21;;;;;;;2.28;1.40;;;26.30;52.90;;;;;;4144606;28;20535;-52
2022/12/11 03:14:44;;;;;;;2.60;1.27;;;26.30;53.70;;;;;;4122926;28;20042;-55
2022/12/11 03:17:23;;;;;;;3.17;1.50;;;26.30;53.10;;;;;;4124424;28;20137;-51
2022/12/11 03:19:57;;;;;;;3.38;1.50;;;26.40;53.10;;;;;;4126402;28;20059;-49
2022/12/11 03:22:33;;;;;;;3.50;1.60;;;26.50;53.10;;;;;;4145601;28;20037;-53
2022/12/11 03:25:03;;;;;;;1.98;1.27;;;26.50;53.00;;;;;;4133440;28;20034;-56
2022/12/11 03:27:37;;;;;;;3.85;1.65;;;26.60;53.10;;;;;;4134647;28;20104;-58
2022/12/11 03:30:16;;;;;;;1.95;1.20;;;26.60;52.90;;;;;;4133993;28;20045;-59
2022/12/11 03:33:02;;;;;;;3.38;1.50;;;26.60;53.00;;;;;;4135353;28;20531;-58
2022/12/11 03:35:50;;;;;;;5.07;1.65;;;26.60;52.90;;;;;;4147354;28;20434;-57
2022/12/11 03:38:28;;;;;;;2.92;1.33;;;26.70;52.90;;;;;;4142976;28;20461;-58
2022/12/11 03:40:55;;;;;;;2.65;1.45;;;26.80;53.00;;;;;;4150109;28;20054;-58
2022/12/11 03:43:19;;;;;;;3.10;1.33;;;26.80;52.90;;;;;;4133559;28;20042;-59
2022/12/11 03:45:41;;;;;;;;;;;26.80;52.90;;;;;;4149146;28;20060;-58
2022/12/11 03:48:05;;;;;;;3.90;1.42;;;26.90;52.80;;;;;;4149359;28;19990;-57
2022/12/11 03:50:30;;;;;;;2.85;1.40;;;26.90;52.80;;;;;;4126985;28;20506;-59
2022/12/11 03:52:54;;;;;;;2.10;1.40;;;26.90;52.70;;;;;;4138827;28;20092;-58
2022/12/11 03:55:18;;;;;;;2.50;1.13;;;27.00;52.80;;;;;;4144270;28;20930;-58
2022/12/11 03:57:41;;;;;;;2.38;1.40;;;27.00;52.80;;;;;;4133990;28;20046;-59
2022/12/11 04:00:10;;;;;;;2.55;1.30;;;27.10;52.60;;;;;;4142028;28;20556;-59
2022/12/11 04:02:33;;;;;;;3.97;1.33;;;27.10;52.60;;;;;;4132742;28;20044;-59
2022/12/11 04:04:55;;;;;;;5.32;1.60;;;27.20;52.60;;;;;;4134602;28;20507;-59
2022/12/11 04:07:18;;;;;;;3.42;1.58;;;27.20;52.50;;;;;;4136117;28;20121;-58
2022/12/11 04:09:41;;;;;;;2.88;1.15;;;27.30;52.50;;;;;;4133254;28;20331;-59
2022/12/11 04:12:03;;;;;;;2.28;1.40;;;27.40;52.50;;;;;;4137176;28;20053;-58
2022/12/11 04:17:08;;;;;;;3.20;1.20;;;27.50;52.30;;;;;;4132222;28;20494;-58
2022/12/11 04:24:55;;;;;;;2.72;1.20;;;27.70;52.00;;;;;;4121820;28;20037;-59
2022/12/11 04:27:47;;;;;;;2.55;1.20;;;27.80;51.90;;;;;;4125604;28;20131;-59
2022/12/11 04:30:00;;;;;;;1.77;1.00;;;27.90;51.90;;;;;;4128914;28;20040;-60
2022/12/11 04:32:23;;;;;;;3.20;1.05;;;27.90;51.70;;;;;;4127517;28;20053;-59
2022/12/11 04:34:45;;;;;;;2.67;1.08;;;28.00;51.50;;;;;;4129979;28;20518;-57
2022/12/11 04:37:08;;;;;;;1.08;0.90;;;28.10;51.50;;;;;;4135149;28;20785;-58
2022/12/11 04:39:30;;;;;;;1.80;0.98;;;28.20;51.20;;;;;;4133492;28;20438;-59
2022/12/11 04:41:53;;;;;;;2.72;0.90;;;28.20;51.20;;;;;;4134347;28;20482;-58
2022/12/11 04:44:15;;;;;;;2.35;1.08;;;28.30;51.10;;;;;;4120194;28;20584;-58
2022/12/11 04:46:38;;;;;;;2.00;1.05;;;28.40;50.90;;;;;;4127988;28;20034;-59
2022/12/11 04:49:01;;;;;;;1.77;1.10;;;28.40;50.90;;;;;;4129373;28;20038;-58
2022/12/11 04:51:24;;;;;;;1.97;0.83;;;28.50;50.70;;;;;;4128635;28;20085;-58
2022/12/11 04:53:46;;;;;;;1.77;0.93;;;28.60;50.70;;;;;;4130318;28;20651;-58
2022/12/11 04:56:11;;;;;;;1.42;0.93;;;28.70;50.50;;;;;;4136044;28;20054;-59
2022/12/11 04:58:36;;;;;;;1.02;0.82;;;28.80;50.50;;;;;;4135024;28;20710;-59
2022/12/11 05:00:59;;;;;;;1.23;0.88;;;28.80;50.40;;;;;;4143982;28;20417;-59
2022/12/11 05:03:22;;;;;;;1.20;0.80;;;28.90;50.30;;;;;;4132539;28;20096;-58
2022/12/11 05:05:49;;;;;;;1.23;0.80;;;28.90;50.10;;;;;;4143591;28;20068;-60
2022/12/11 05:08:12;;;;;;;1.95;0.75;;;29.00;50.20;;;;;;4136901;28;20078;-59
2022/12/11 05:10:34;;;;;;;2.05;0.70;;;29.10;50.10;;;;;;4130221;28;20069;-59
2022/12/11 05:12:57;;;;;;;1.02;0.82;;;29.10;50.00;;;;;;4130785;28;20610;-59
2022/12/11 05:15:20;;;;;;;1.57;0.77;;;29.20;49.90;;;;;;4126185;28;20401;-59
2022/12/11 05:17:45;;;;;;;1.27;0.70;;;29.30;49.80;;;;;;4134465;28;21429;-58
2022/12/11 05:20:09;;;;;;;2.60;0.80;;;29.40;49.80;;;;;;4126615;28;20353;-59
2022/12/11 05:22:31;;;;;;;2.08;1.00;;;29.40;49.70;;;;;;4129929;28;20125;-59
2022/12/11 05:24:54;;;;;;;1.63;1.00;;;29.50;49.70;;;;;;4123286;28;20046;-58
2022/12/11 05:27:16;;;;;;;1.30;0.90;;;29.50;49.50;;;;;;4132661;28;20444;-59
2022/12/11 05:29:39;;;;;;;1.73;0.90;;;29.60;49.40;;;;;;4132070;28;20034;-60
2022/12/11 05:32:02;;;;;;;1.52;0.80;;;29.70;49.40;;;;;;4127888;28;20372;-59
2022/12/11 05:34:24;;;;;;;1.47;0.80;;;29.80;49.40;;;;;;4135871;28;20080;-61
2022/12/11 05:36:47;;;;;;;1.07;0.77;;;29.80;49.20;;;;;;4135810;28;20042;-59
2022/12/11 05:39:11;;;;;;;1.70;0.98;;;29.90;49.20;;;;;;4126840;28;20066;-59
2022/12/11 05:41:34;;;;;;;1.38;0.82;;;29.90;49.10;;;;;;4137754;28;20052;-59
2022/12/11 05:43:56;;;;;;;2.28;0.93;;;30.00;49.10;;;;;;4128564;28;20034;-58
2022/12/11 05:46:25;;;;;;;2.07;1.03;;;30.10;49.00;;;;;;4134670;28;20048;-59
2022/12/11 05:48:50;;;;;;;3.22;1.00;;;30.10;49.00;;;;;;4139847;28;20050;-60
2022/12/11 05:51:14;;;;;;;1.83;1.05;;;30.20;48.90;;;;;;4133440;28;20065;-58
2022/12/11 05:53:37;;;;;;;1.48;1.10;;;30.30;48.80;;;;;;4135997;28;20049;-59
2022/12/11 05:56:03;;;;;;;;;;;30.30;48.80;;;;;;4131773;28;20045;-59
2022/12/11 05:58:26;;;;;;;1.95;0.77;;;30.40;48.90;;;;;;4134236;28;20265;-58
2022/12/11 06:00:48;;;;;;;3.65;1.20;;;30.40;48.70;;;;;;4128501;28;20457;-58
2022/12/11 06:03:11;;;;;;;2.33;1.13;;;30.50;48.70;;;;;;4135838;28;20041;-59
2022/12/11 06:05:42;;;;;;;1.83;1.10;;;30.50;48.70;;;;;;4134171;28;20073;-60
2022/12/11 06:08:04;;;;;;;2.17;0.90;;;30.50;48.60;;;;;;4137276;28;20508;-59
2022/12/11 06:10:27;;;;;;;1.53;0.80;;;30.50;48.60;;;;;;4134421;28;20488;-59
2022/12/11 06:12:49;;;;;;;2.33;0.80;;;30.50;48.60;;;;;;4132793;28;20041;-59
2022/12/11 06:15:12;;;;;;;1.30;0.77;;;30.60;48.70;;;;;;4126402;28;20045;-61
2022/12/11 06:17:34;;;;;;;1.08;0.82;;;30.50;49.40;;;;;;4134404;28;20545;-59
2022/12/11 06:19:57;;;;;;;1.05;0.93;;;30.60;48.80;;;;;;4131577;28;20042;-59
2022/12/11 06:22:19;;;;;;;1.60;0.90;;;30.60;48.80;;;;;;4135480;28;20041;-58
2022/12/11 06:24:42;;;;;;;1.85;1.00;;;30.60;48.80;;;;;;4129364;28;20045;-59
2022/12/11 06:27:04;;;;;;;2.05;1.10;;;30.60;48.70;;;;;;4130829;28;20409;-59
2022/12/11 06:29:27;;;;;;;2.90;1.10;;;30.70;48.80;;;;;;4136660;28;20517;-59
2022/12/11 06:31:50;;;;;;;4.30;1.20;;;30.70;48.70;;;;;;4121394;28;20035;-59
2022/12/11 06:34:13;;;;;;;2.00;0.80;;;30.70;48.80;;;;;;4138120;28;20041;-59
2022/12/11 06:36:35;;;;;;;2.40;0.98;;;30.70;48.80;;;;;;4141286;28;20041;-59
2022/12/11 06:38:58;;;;;;;3.38;1.38;;;30.70;48.80;;;;;;4135832;28;20045;-59
2022/12/11 06:41:20;;;;;;;1.98;0.93;;;30.60;48.80;;;;;;4132712;28;20409;-60
2022/12/11 06:43:43;;;;;;;2.22;1.17;;;30.70;48.90;;;;;;4141083;28;20210;-58
2022/12/11 06:46:08;;;;;;;2.92;1.08;;;30.70;48.90;;;;;;4139600;28;20483;-55
2022/12/11 06:48:30;;;;;;;2.67;1.25;;;30.70;48.90;;;;;;4133756;28;20041;-54
2022/12/11 06:50:53;;;;;;;1.00;0.77;;;30.70;49.00;;;;;;4133379;28;20509;-57
2022/12/11 06:53:16;;;;;;;2.05;1.15;;;30.70;49.00;;;;;;4130493;28;20482;-55
2022/12/11 06:55:39;;;;;;;1.85;1.23;;;30.60;49.00;;;;;;4130799;28;20087;-51
2022/12/11 06:58:01;;;;;;;2.83;1.17;;;30.60;49.10;;;;;;4129228;28;20265;-45
2022/12/11 07:00:24;;;;;;;2.78;1.20;;;30.60;49.20;;;;;;4126265;28;20486;-56
2022/12/11 07:02:46;;;;;;;2.00;1.27;;;30.60;49.40;;;;;;4131053;28;20494;-51
2022/12/11 07:05:09;;;;;;;6.60;1.73;;;30.60;49.80;;;;;;4130187;28;20080;-49
2022/12/11 07:07:32;;;;;;;3.13;0.93;;;30.60;49.60;;;;;;4132347;28;20042;-53
2022/12/11 07:09:55;;;;;;;2.50;1.13;;;30.60;49.60;;;;;;4134252;28;20123;-49
2022/12/11 07:12:17;;;;;;;3.83;1.00;;;30.60;49.70;;;;;;4138965;28;20486;-55
2022/12/11 07:14:40;;;;;;;3.08;1.27;;;30.60;49.70;;;;;;4129890;28;20418;-54
2022/12/11 07:17:02;;;;;;;2.78;1.30;;;30.60;49.70;;;;;;4137537;28;20045;-54
2022/12/11 07:19:25;;;;;;;1.77;0.83;;;30.60;49.80;;;;;;4140281;28;20042;-55
2022/12/11 07:21:48;;;;;;;6.40;1.20;;;30.60;49.80;;;;;;4139754;28;20123;-50
2022/12/11 07:24:10;;;;;;;6.50;1.30;;;30.60;49.90;;;;;;4143042;28;20034;-52
2022/12/11 07:26:34;;;;;;;1.77;0.82;;;30.60;50.00;;;;;;4136961;28;20045;-53
2022/12/11 07:29:00;;;;;;;2.83;1.35;;;30.50;49.90;;;;;;4139776;28;20038;-54
2022/12/11 07:31:24;;;;;;;2.45;1.02;;;30.50;50.00;;;;;;4137878;28;20034;-51
2022/12/11 07:33:47;;;;;;;2.50;1.10;;;30.50;50.10;;;;;;4141353;28;20030;-53
2022/12/11 07:36:12;;;;;;;5.45;1.67;;;30.50;50.20;;;;;;4138319;28;20057;-52
2022/12/11 07:38:35;;;;;;;4.15;1.50;;;30.50;50.30;;;;;;4134769;28;20040;-53
2022/12/11 07:41:01;;;;;;;5.78;1.20;;;30.40;50.30;;;;;;4142636;28;20470;-53
2022/12/11 07:43:23;;;;;;;5.18;1.20;;;30.40;50.50;;;;;;4139759;28;20041;-52
2022/12/11 07:45:46;;;;;;;4.28;1.23;;;30.30;50.40;;;;;;4147112;28;20406;-55
2022/12/11 07:48:08;;;;;;;2.67;1.20;;;30.30;50.50;;;;;;4133220;28;20079;-51
2022/12/11 07:50:31;;;;;;;5.13;1.35;;;30.30;50.70;;;;;;4131773;28;20499;-46
2022/12/11 07:52:54;;;;;;;10.45;1.83;;;30.20;50.80;;;;;;4135060;28;20042;-45
2022/12/11 07:55:16;;;;;;;2.73;1.13;;;30.20;51.70;;;;;;4130002;28;20030;-48
2022/12/11 07:57:39;;;;;;;3.00;1.20;;;30.20;51.90;;;;;;4127086;28;20307;-45
2022/12/11 08:00:02;;;;;;;4.33;1.17;;;30.20;51.80;;;;;;4127679;28;20038;-45
2022/12/11 08:02:24;;;;;;;4.82;1.23;;;30.30;52.00;;;;;;4133042;28;20363;-46
2022/12/11 08:04:47;;;;;;;4.00;1.08;;;30.30;52.20;;;;;;4129937;28;20045;-46
2022/12/11 08:07:09;;;;;;;1.98;0.95;;;30.30;52.30;;;;;;4133387;28;21421;-53
2022/12/11 08:09:32;;;;;;;3.72;1.00;;;30.30;52.20;;;;;;4132932;28;20038;-49
2022/12/11 08:11:55;;;;;;;7.47;1.30;;;30.30;52.60;;;;;;4133990;28;20045;-49
2022/12/11 08:14:19;;;;;;;2.65;0.90;;;30.30;52.60;;;;;;4132574;28;20130;-48
2022/12/11 08:16:42;;;;;;;4.95;1.40;;;30.30;52.90;;;;;;4133865;28;20438;-48
2022/12/11 08:19:05;;;;;;;2.97;1.20;;;30.20;52.80;;;;;;4135512;28;20430;-50
2022/12/11 08:21:28;;;;;;;1.60;0.98;;;30.20;52.90;;;;;;4138043;28;20569;-47
2022/12/11 08:23:52;;;;;;;2.20;1.10;;;30.20;52.80;;;;;;4130553;28;20065;-49
2022/12/11 08:26:18;;;;;;;2.75;0.90;;;30.30;53.00;;;;;;4126333;28;20079;-52
2022/12/11 08:28:41;;;;;;;7.60;1.00;;;30.30;53.00;;;;;;4125019;28;20042;-48
2022/12/11 08:31:08;;;;;;;3.92;0.98;;;30.30;53.00;;;;;;4129748;28;20333;-50
2022/12/11 08:33:31;;;;;;;2.33;0.88;;;30.20;53.20;;;;;;4130637;28;20465;-46
2022/12/11 08:35:53;;;;;;;14.38;1.65;;;30.30;53.30;;;;;;4127559;28;20113;-51
2022/12/11 08:38:16;;;;;;;2.45;0.60;;;30.20;53.30;;;;;;4129896;28;20116;-49
2022/12/11 08:40:38;;;;;;;2.33;1.10;;;30.20;53.30;;;;;;4125386;28;20041;-46
2022/12/11 08:43:01;;;;;;;1.98;0.80;;;30.20;53.60;;;;;;4125777;28;20038;-53
2022/12/11 08:45:24;;;;;;;1.73;0.73;;;30.20;53.60;;;;;;4126683;28;20122;-52
2022/12/11 08:47:46;;;;;;;2.97;0.93;;;30.20;53.60;;;;;;4131393;28;20044;-52
2022/12/11 08:50:09;;;;;;;2.63;0.80;;;30.20;53.70;;;;;;4129252;28;20123;-44
2022/12/11 08:52:34;;;;;;;1.63;0.80;;;30.10;53.80;;;;;;4133122;28;20041;-48
2022/12/11 08:54:57;;;;;;;1.20;0.77;;;30.00;54.00;;;;;;4132919;28;20482;-44
2022/12/11 08:57:20;;;;;;;4.18;0.85;;;30.00;54.20;;;;;;4129240;28;20056;-48
2022/12/11 08:59:43;;;;;;;2.07;0.63;;;29.90;54.30;;;;;;4132907;28;20037;-45
2022/12/11 09:02:05;;;;;;;2.08;0.73;;;29.90;54.50;;;;;;4113171;28;20063;-57
2022/12/11 09:04:28;;;;;;;2.55;0.77;;;29.90;54.70;;;;;;4104765;28;20149;-55
2022/12/11 09:06:51;;;;;;;5.35;0.60;;;29.90;54.80;;;;;;4132322;28;20427;-54
2022/12/11 09:09:13;;;;;;;1.95;0.77;;;29.90;54.90;;;;;;4130401;28;20034;-59
2022/12/11 09:11:37;;;;;;;1.30;0.60;;;29.80;55.20;;;;;;4164275;23;20100;-64
2022/12/11 09:14:01;;;;;;;0.45;0.35;;;29.90;55.00;;;;;;4152741;28;20588;-59
2022/12/11 09:16:25;;;;;;;1.15;0.57;;;29.80;55.00;;;;;;4149526;28;20385;-62
2022/12/11 09:18:50;;;;;;;1.05;0.45;;;29.80;55.10;;;;;;4144865;28;20069;-60
2022/12/11 09:21:14;;;;;;;1.95;0.60;;;29.90;55.30;;;;;;4148468;28;20037;-63
2022/12/11 09:23:37;;;;;;;0.98;0.65;;;29.90;55.40;;;;;;4147846;28;20394;-60
2022/12/11 09:26:02;;;;;;;0.87;0.57;;;29.90;55.50;;;;;;4145718;28;20064;-61
2022/12/11 09:28:18;;;;;;;0.40;0.40;;;29.90;55.60;;;;;;4128261;28;20052;-54
2022/12/11 09:30:41;;;;;;;0.77;0.50;;;29.80;55.50;;;;;;4135465;28;20046;-50
2022/12/11 09:33:03;;;;;;;1.33;0.60;;;29.90;55.50;;;;;;4128292;28;20030;-51
2022/12/11 09:35:26;;;;;;;1.40;0.55;;;29.90;55.50;;;;;;4128570;28;20073;-49
2022/12/11 09:37:49;;;;;;;0.77;0.50;;;29.80;55.40;;;;;;4131071;28;20141;-46
2022/12/11 09:40:12;;;;;;;1.48;0.60;;;29.80;55.40;;;;;;4132070;28;20060;-53
2022/12/11 09:42:59;;;;;;;1.15;0.50;;;29.80;55.50;;;;;;4130728;28;20401;-48
2022/12/11 09:45:22;;;;;;;1.13;0.57;;;29.90;55.50;;;;;;4128779;28;20364;-52
2022/12/11 09:47:51;;;;;;;0.90;0.53;;;29.90;55.50;;;;;;4130566;28;20124;-45
2022/12/11 09:50:28;;;;;;;0.95;0.57;;;29.90;55.50;;;;;;4137318;28;20048;-52
2022/12/11 09:53:15;;;;;;;0.75;0.52;;;29.90;55.50;;;;;;4135206;28;20493;-50
2022/12/11 09:55:53;;;;;;;1.00;0.57;;;29.90;55.50;;;;;;4136473;28;20696;-45
2022/12/11 09:58:19;;;;;;;0.75;0.47;;;29.90;55.50;;;;;;4234168;22;20109;-59
2022/12/11 10:00:48;;;;;;;1.15;0.70;;;29.90;55.50;;;;;;4133209;28;20046;-62
2022/12/11 10:03:22;;;;;;;1.35;0.60;;;29.90;55.50;;;;;;4133927;28;20053;-60
2022/12/11 10:06:12;;;;;;;1.42;0.75;;;29.90;55.50;;;;;;4138532;28;20052;-59
2022/12/11 10:09:09;;;;;;;1.27;0.77;;;29.90;55.60;;;;;;4134739;28;20564;-60
2022/12/11 10:11:58;;;;;;;0.38;0.38;;;29.90;55.60;;;;;;4132953;28;20039;-60
2022/12/11 10:14:42;;;;;;;1.08;0.47;;;29.90;55.70;;;;;;4136634;28;20073;-64
2022/12/11 10:17:10;;;;;;;1.92;0.75;;;29.90;56.10;;;;;;4128885;28;20494;-52
2022/12/11 10:19:34;;;;;;;1.20;0.63;;;29.90;55.80;;;;;;4117519;28;20062;-58
2022/12/11 10:21:58;;;;;;;0.98;0.43;;;29.90;55.80;;;;;;4116779;28;20070;-52
2022/12/11 10:24:55;;;;;;;1.40;0.68;;;29.90;55.80;;;;;;4115003;28;20121;-57
2022/12/11 10:27:25;;;;;;;0.90;0.40;;;30.00;55.80;;;;;;4134018;23;20118;-46
2022/12/11 10:29:55;;;;;;;3.08;0.60;;;29.90;55.70;;;;;;4118096;28;20564;-43
2022/12/11 10:32:55;;;;;;;0.98;0.50;;;30.00;55.80;;;;;;4114502;28;20514;-43
2022/12/11 10:35:39;;;;;;;0.80;0.60;;;30.00;55.80;;;;;;4116879;28;20452;-45
2022/12/11 10:38:12;;;;;;;;;;;29.90;55.70;;;;;;4119963;28;20049;-51
2022/12/11 10:40:37;;;;;;;1.50;0.90;;;30.00;55.80;;;;;;4116706;28;19913;-49
2022/12/11 10:43:00;;;;;;;1.52;0.50;;;29.90;55.80;;;;;;4160235;22;20148;-57
2022/12/11 10:45:22;;;;;;;2.70;0.80;;;29.90;55.80;;;;;;4150521;28;20033;-56
2022/12/11 10:47:45;;;;;;;2.05;0.82;;;30.00;55.80;;;;;;4150729;28;20152;-58
2022/12/11 10:50:22;;;;;;;2.67;0.68;;;30.00;55.70;;;;;;4153528;28;20087;-55
2022/12/11 10:52:45;;;;;;;7.68;1.15;;;30.00;55.70;;;;;;4152537;28;20053;-56
2022/12/11 10:55:26;;;;;;;2.40;0.93;;;30.00;55.70;;;;;;4150306;28;20088;-60
2022/12/11 10:57:59;;;;;;;2.03;0.60;;;29.90;55.60;;;;;;4151030;28;20072;-59
2022/12/11 11:00:39;;;;;;;1.73;0.80;;;30.00;55.80;;;;;;4172663;22;20347;-50
2022/12/11 11:03:04;;;;;;;2.33;0.85;;;30.00;55.90;;;;;;4130864;28;20053;-54
2022/12/11 11:05:37;;;;;;;3.80;1.30;;;29.90;55.40;;;;;;4133146;28;20705;-55
2022/12/11 11:08:11;;;;;;;3.90;1.45;;;29.90;55.20;;;;;;4135866;28;20126;-57
2022/12/11 11:10:34;;;;;;;3.22;1.15;;;29.90;55.30;;;;;;4132254;28;20121;-55
2022/12/11 11:13:01;;;;;;;2.55;1.25;;;29.90;55.30;;;;;;4134065;28;20045;-54
2022/12/11 11:15:29;;;;;;;6.13;1.55;;;29.90;55.20;;;;;;4150298;22;20064;-46
2022/12/11 11:17:54;;;;;;;4.50;1.10;;;29.90;55.00;;;;;;4123723;28;20124;-56
2022/12/11 11:20:23;;;;;;;6.50;1.85;;;29.90;54.90;;;;;;4115182;28;20580;-55
2022/12/11 11:23:11;;;;;;;3.78;1.65;;;29.80;55.00;;;;;;4132092;28;20421;-51
2022/12/11 11:25:33;;;;;;;2.50;1.50;;;29.80;55.00;;;;;;4118172;28;20439;-58
2022/12/11 11:28:14;;;;;;;4.67;1.90;;;29.80;55.10;;;;;;4119579;28;20053;-56
2022/12/11 11:30:40;;;;;;;3.42;1.67;;;29.70;55.00;;;;;;4118469;28;20104;-54
2022/12/11 11:33:21;;;;;;;4.47;1.48;;;29.70;55.00;;;;;;4115785;28;20049;-55
2022/12/11 11:36:05;;;;;;;4.35;1.58;;;29.70;55.00;;;;;;4153636;23;20434;-54
2022/12/11 11:38:52;;;;;;;3.75;1.40;;;29.70;55.00;;;;;;4131086;28;20084;-50
2022/12/11 11:41:26;;;;;;;2.40;1.48;;;29.70;55.00;;;;;;4134546;28;20432;-53
2022/12/11 11:43:58;;;;;;;3.80;1.80;;;29.70;55.10;;;;;;4133701;28;20038;-49
2022/12/11 11:46:49;;;;;;;7.55;1.80;;;29.70;55.70;;;;;;4125758;28;20033;-47
2022/12/11 11:49:24;;;;;;;5.15;1.70;;;29.70;55.10;;;;;;4134229;28;20034;-48
2022/12/11 11:52:07;;;;;;;5.45;1.60;;;29.70;55.10;;;;;;4134652;28;20040;-45
2022/12/11 11:54:35;;;;;;;3.95;1.70;;;29.60;55.10;;;;;;4131668;28;20189;-46
2022/12/11 11:57:03;;;;;;;5.97;2.25;;;29.60;55.10;;;;;;4135729;28;20099;-57
2022/12/11 11:59:31;;;;;;;11.90;2.30;;;29.60;55.20;;;;;;4138964;28;20029;-53
2022/12/11 12:01:56;;;;;;;8.48;2.38;;;29.60;55.20;;;;;;4137405;28;20108;-53
2022/12/11 12:04:18;;;;;;;5.80;1.52;;;29.60;55.10;;;;;;4154472;23;20494;-59
2022/12/11 12:07:13;;;;;;;9.68;2.25;;;29.50;55.60;;;;;;4130414;28;20582;-62
2022/12/11 12:10:12;;;;;;;5.07;1.92;;;29.50;55.40;;;;;;4134052;28;20041;-61
2022/12/11 12:12:50;;;;;;;4.60;1.77;;;29.50;55.80;;;;;;4134560;28;20048;-63
2022/12/11 12:15:39;;;;;;;6.00;1.85;;;29.50;56.00;;;;;;4134211;28;20038;-64
2022/12/11 12:18:55;;;;;;;5.60;1.20;;;29.50;56.00;;;;;;4145880;22;20069;-48
2022/12/11 12:21:35;;;;;;;3.45;1.80;;;29.50;56.00;;;;;;4068118;29;20074;-46
2022/12/11 12:24:15;;;;;;;4.47;1.52;;;29.50;56.30;;;;;;4120481;28;20065;-47
2022/12/11 12:26:42;;;;;;;4.25;1.48;;;29.50;56.40;;;;;;4118248;28;20053;-42
2022/12/11 12:29:31;;;;;;;2.85;1.60;;;29.40;56.20;;;;;;4127905;28;20493;-47
2022/12/11 12:32:05;;;;;;;3.65;1.40;;;29.40;56.20;;;;;;4121812;28;20042;-44
2022/12/11 12:34:27;;;;;;;;;;;29.40;56.30;;;;;;4122734;28;20038;-44
2022/12/11 12:37:10;;;;;;;3.20;1.50;;;29.40;56.30;;;;;;4144850;23;19949;-47
2022/12/11 12:39:36;;;;;;;2.40;1.30;;;29.40;56.30;;;;;;4134942;28;20034;-51
2022/12/11 12:42:18;;;;;;;6.78;1.73;;;29.40;56.30;;;;;;4136650;28;20092;-47
2022/12/11 12:44:58;;;;;;;5.10;1.95;;;29.30;56.40;;;;;;4122225;28;20077;-48
2022/12/11 12:47:22;;;;;;;3.95;1.60;;;29.30;56.40;;;;;;4137072;28;20034;-47
2022/12/11 12:49:50;;;;;;;5.20;1.52;;;29.30;56.40;;;;;;4135127;28;20348;-47
2022/12/11 12:52:17;;;;;;;4.80;1.55;;;29.30;56.30;;;;;;4135771;28;20121;-47
2022/12/11 12:54:41;;;;;;;5.28;1.80;;;29.30;56.20;;;;;;4125638;28;20053;-46
2022/12/11 12:57:05;;;;;;;3.70;1.65;;;29.30;56.30;;;;;;4128695;28;20056;-47
2022/12/11 12:59:28;;;;;;;10.30;1.83;;;29.30;56.30;;;;;;4132514;28;20038;-53